createdAt,value
2018-12-21T00:02:18.258Z,5.32
2018-12-21T00:04:48.464Z,5.39
2018-12-21T00:07:18.657Z,5.38
2018-12-21T00:09:48.885Z,5.33
2018-12-21T00:12:20.049Z,5.41
2018-12-21T00:14:50.225Z,5.54
2018-12-21T00:17:20.362Z,5.64
2018-12-21T00:19:50.539Z,5.62
2018-12-21T00:22:20.687Z,5.81
2018-12-21T00:24:50.858Z,5.84
2018-12-21T00:27:21.122Z,5.81
2018-12-21T00:29:53.556Z,5.82
2018-12-21T00:32:29.013Z,5.69
2018-12-21T00:35:04.510Z,5.89
2018-12-21T00:37:39.769Z,5.81
2018-12-21T00:40:15.169Z,6.02
2018-12-21T00:42:50.185Z,6.02
2018-12-21T00:45:26.211Z,6.11
2018-12-21T00:47:56.681Z,5.98
2018-12-21T00:50:26.881Z,6.02
2018-12-21T00:52:58.397Z,6.02
2018-12-21T00:55:28.561Z,6.07
2018-12-21T00:57:58.699Z,6.09
2018-12-21T01:00:29.521Z,6.37
2018-12-21T01:02:59.673Z,6.28
2018-12-21T01:05:29.932Z,6.41
2018-12-21T01:08:00.106Z,6.32
2018-12-21T01:10:30.329Z,6.27
2018-12-21T01:13:01.589Z,6.30
2018-12-21T01:15:34.861Z,6.37
2018-12-21T01:18:05.150Z,6.23
2018-12-21T01:20:35.399Z,6.20
2018-12-21T01:23:05.507Z,6.26
2018-12-21T01:25:35.674Z,6.14
2018-12-21T01:28:05.786Z,6.14
2018-12-21T01:30:35.998Z,6.24
2018-12-21T01:33:07.003Z,6.15
2018-12-21T01:35:37.257Z,6.28
2018-12-21T01:38:07.460Z,6.34
2018-12-21T01:40:38.972Z,6.29
2018-12-21T01:43:09.162Z,6.30
2018-12-21T01:45:39.313Z,6.30
2018-12-21T01:48:09.447Z,6.34
2018-12-21T01:50:39.657Z,6.31
2018-12-21T01:53:09.797Z,6.27
2018-12-21T01:55:40.014Z,6.33
2018-12-21T01:58:10.127Z,6.36
2018-12-21T02:00:40.332Z,6.34
2018-12-21T02:03:10.451Z,6.30
2018-12-21T02:05:40.716Z,6.31
2018-12-21T02:08:10.864Z,6.35
2018-12-21T02:10:41.027Z,6.30
2018-12-21T02:13:12.498Z,6.22
2018-12-21T02:15:42.648Z,6.27
2018-12-21T02:18:12.810Z,6.26
2018-12-21T02:20:43.028Z,6.43
2018-12-21T02:23:13.238Z,6.36
2018-12-21T02:25:44.540Z,6.38
2018-12-21T02:28:14.748Z,6.53
2018-12-21T02:30:44.907Z,6.53
2018-12-21T02:33:15.126Z,6.36
2018-12-21T02:35:45.291Z,6.38
2018-12-21T02:38:15.416Z,6.40
2018-12-21T02:40:45.586Z,6.39
2018-12-21T02:43:15.837Z,6.38
2018-12-21T02:45:45.989Z,6.43
2018-12-21T02:48:16.123Z,6.44
2018-12-21T02:50:46.268Z,6.44
2018-12-21T02:53:16.415Z,6.37
2018-12-21T02:55:46.568Z,6.59
2018-12-21T02:58:16.772Z,6.54
2018-12-21T03:00:46.974Z,6.46
2018-12-21T03:03:17.112Z,6.58
2018-12-21T03:05:47.445Z,6.43
2018-12-21T03:08:17.565Z,6.32
2018-12-21T03:10:47.757Z,6.23
2018-12-21T03:13:17.899Z,6.08
2018-12-21T03:15:48.094Z,6.17
2018-12-21T03:18:18.286Z,6.19
2018-12-21T03:20:48.445Z,6.15
2018-12-21T03:23:18.605Z,6.09
2018-12-21T03:25:48.747Z,6.06
2018-12-21T03:28:18.909Z,6.11
2018-12-21T03:30:49.089Z,5.97
2018-12-21T03:33:19.249Z,5.89
2018-12-21T03:35:49.515Z,6.08
2018-12-21T03:38:19.669Z,6.00
2018-12-21T03:40:49.827Z,5.76
2018-12-21T03:43:20.002Z,5.91
2018-12-21T03:45:50.145Z,5.99
2018-12-21T03:48:20.457Z,5.89
2018-12-21T03:50:50.723Z,5.98
2018-12-21T03:53:20.883Z,5.89
2018-12-21T03:55:51.029Z,5.70
2018-12-21T03:58:21.223Z,5.94
2018-12-21T04:00:51.360Z,5.91
2018-12-21T04:03:21.530Z,5.77
2018-12-21T04:05:51.704Z,5.87
2018-12-21T04:08:21.850Z,5.89
2018-12-21T04:10:52.004Z,5.71
2018-12-21T04:13:22.150Z,5.62
2018-12-21T04:15:52.368Z,5.63
2018-12-21T04:18:22.561Z,5.53
2018-12-21T04:20:52.743Z,5.40
2018-12-21T04:23:22.864Z,5.36
2018-12-21T04:25:53.361Z,5.22
2018-12-21T04:28:23.495Z,5.34
2018-12-21T04:30:53.653Z,5.42
2018-12-21T04:33:23.772Z,5.42
2018-12-21T04:35:55.126Z,5.27
2018-12-21T04:38:25.270Z,5.47
2018-12-21T04:40:55.529Z,5.36
2018-12-21T04:43:25.675Z,5.54
2018-12-21T04:45:55.961Z,5.49
2018-12-21T04:48:26.081Z,5.53
2018-12-21T04:50:56.269Z,5.51
2018-12-21T04:53:26.414Z,5.48
2018-12-21T04:55:56.617Z,5.41
2018-12-21T04:58:26.722Z,5.27
2018-12-21T05:00:56.960Z,5.10
2018-12-21T05:03:27.225Z,4.99
2018-12-21T05:05:57.387Z,5.22
2018-12-21T05:08:27.500Z,5.02
2018-12-21T05:10:57.687Z,5.29
2018-12-21T05:13:27.910Z,5.07
2018-12-21T05:15:58.083Z,5.07
2018-12-21T05:18:28.357Z,4.96
2018-12-21T05:20:58.525Z,5.06
2018-12-21T05:23:28.655Z,5.15
2018-12-21T05:25:58.906Z,5.11
2018-12-21T05:28:29.108Z,5.23
2018-12-21T05:30:59.339Z,5.14
2018-12-21T05:33:29.512Z,5.05
2018-12-21T05:35:59.756Z,4.91
2018-12-21T05:38:30.651Z,4.85
2018-12-21T05:41:00.780Z,4.87
2018-12-21T05:43:30.942Z,4.92
2018-12-21T05:46:01.120Z,5.09
2018-12-21T05:48:31.272Z,5.03
2018-12-21T05:51:01.458Z,5.11
2018-12-21T05:53:31.596Z,5.18
2018-12-21T05:56:01.884Z,5.23
2018-12-21T05:58:32.174Z,5.14
2018-12-21T06:01:02.386Z,5.04
2018-12-21T06:03:32.552Z,5.12
2018-12-21T06:06:02.738Z,5.07
2018-12-21T06:08:33.584Z,5.15
2018-12-21T06:11:03.834Z,5.15
2018-12-21T06:13:34.028Z,5.06
2018-12-21T06:16:04.364Z,5.19
2018-12-21T06:18:34.651Z,5.08
2018-12-21T06:21:04.916Z,4.85
2018-12-21T06:23:35.102Z,4.96
2018-12-21T06:26:05.390Z,4.96
2018-12-21T06:28:35.639Z,4.96
2018-12-21T06:31:06.054Z,4.99
2018-12-21T06:33:36.263Z,4.84
2018-12-21T06:36:06.719Z,4.91
2018-12-21T06:38:36.896Z,4.83
2018-12-21T06:41:07.072Z,4.83
2018-12-21T06:43:37.308Z,4.83
2018-12-21T06:46:14.204Z,4.75
2018-12-21T06:48:39.652Z,4.80
2018-12-21T06:51:09.846Z,4.74
2018-12-21T06:53:40.009Z,4.88
2018-12-21T06:56:10.281Z,4.92
2018-12-21T06:58:40.406Z,4.92
2018-12-21T07:01:10.614Z,4.70
2018-12-21T07:03:40.865Z,4.75
2018-12-21T07:06:11.108Z,4.64
2018-12-21T07:08:41.280Z,4.48
2018-12-21T07:11:11.480Z,4.64
2018-12-21T07:13:41.785Z,4.40
2018-12-21T07:16:11.944Z,4.50
2018-12-21T07:18:42.124Z,4.88
2018-12-21T07:21:12.381Z,5.31
2018-12-21T07:23:42.642Z,5.62
2018-12-21T07:26:12.910Z,5.71
2018-12-21T07:28:45.089Z,5.82
2018-12-21T07:31:15.322Z,5.49
2018-12-21T07:33:46.254Z,6.04
2018-12-21T07:36:16.455Z,5.39
2018-12-21T07:38:46.579Z,5.30
2018-12-21T07:41:16.868Z,5.78
2018-12-21T07:43:47.063Z,5.94
2018-12-21T07:46:17.282Z,6.04
2018-12-21T07:48:48.339Z,6.30
2018-12-21T07:51:18.823Z,5.77
2018-12-21T07:53:49.033Z,5.64
2018-12-21T07:56:19.218Z,6.23
2018-12-21T07:58:56.883Z,6.46
2018-12-21T08:01:21.559Z,5.66
2018-12-21T08:03:51.764Z,5.35
2018-12-21T08:06:22.077Z,5.18
2018-12-21T08:08:52.220Z,5.07
2018-12-21T08:11:22.556Z,5.25
2018-12-21T08:13:52.814Z,5.08
2018-12-21T08:16:22.999Z,5.22
2018-12-21T08:18:53.259Z,5.39
2018-12-21T08:21:23.491Z,5.24
2018-12-21T08:23:53.762Z,5.27
2018-12-21T08:26:24.038Z,5.51
2018-12-21T08:28:54.270Z,5.56
2018-12-21T08:31:24.810Z,5.60
2018-12-21T08:33:54.962Z,5.73
2018-12-21T08:36:25.136Z,5.82
2018-12-21T08:38:55.320Z,5.69
2018-12-21T08:41:25.570Z,5.88
2018-12-21T08:43:55.778Z,5.89
2018-12-21T08:46:26.009Z,5.96
2018-12-21T08:48:56.195Z,5.92
2018-12-21T08:51:26.386Z,6.08
2018-12-21T08:53:56.605Z,6.28
2018-12-21T08:56:26.848Z,6.36
2018-12-21T08:58:57.005Z,6.24
2018-12-21T09:01:27.260Z,6.26
2018-12-21T09:03:57.486Z,6.15
2018-12-21T09:06:27.835Z,6.20
2018-12-21T09:08:58.063Z,6.12
2018-12-21T09:11:28.230Z,6.09
2018-12-21T09:13:58.574Z,6.16
2018-12-21T09:16:28.833Z,6.10
2018-12-21T09:18:59.098Z,6.16
2018-12-21T09:21:29.376Z,6.13
2018-12-21T09:24:01.224Z,6.18
2018-12-21T09:26:32.920Z,6.04
2018-12-21T09:29:03.115Z,6.29
2018-12-21T09:31:33.366Z,6.53
2018-12-21T09:34:03.595Z,6.48
2018-12-21T09:36:33.921Z,6.38
2018-12-21T09:39:04.910Z,6.30
2018-12-21T09:41:35.311Z,6.27
2018-12-21T09:44:05.520Z,6.24
2018-12-21T09:46:35.754Z,6.19
2018-12-21T09:49:06.142Z,6.10
2018-12-21T09:51:36.470Z,6.34
2018-12-21T09:54:10.074Z,6.33
2018-12-21T09:56:39.034Z,6.10
2018-12-21T09:59:09.512Z,6.24
2018-12-21T10:01:39.737Z,6.24
2018-12-21T10:04:09.946Z,6.18
2018-12-21T10:06:40.099Z,6.14
2018-12-21T10:09:10.266Z,6.31
2018-12-21T10:11:40.536Z,6.27
2018-12-21T10:14:10.710Z,6.24
2018-12-21T10:16:40.896Z,6.02
2018-12-21T10:19:11.004Z,5.98
2018-12-21T10:21:41.488Z,6.11
2018-12-21T10:24:18.461Z,6.11
2018-12-21T10:26:43.976Z,6.01
2018-12-21T10:29:14.182Z,6.22
2018-12-21T10:31:44.371Z,6.33
2018-12-21T10:34:14.561Z,6.26
2018-12-21T10:36:44.736Z,6.33
2018-12-21T10:39:19.404Z,6.35
2018-12-21T10:41:49.599Z,6.28
2018-12-21T10:44:19.841Z,6.15
2018-12-21T10:46:50.134Z,6.26
2018-12-21T10:49:20.384Z,5.92
2018-12-21T10:51:50.600Z,6.23
2018-12-21T10:54:26.781Z,6.28
2018-12-21T10:56:53.192Z,6.32
2018-12-21T10:59:23.366Z,6.23
2018-12-21T11:01:53.538Z,6.26
2018-12-21T11:04:23.719Z,6.30
2018-12-21T11:06:53.862Z,6.27
2018-12-21T11:09:24.323Z,6.27
2018-12-21T11:11:54.514Z,6.11
2018-12-21T11:14:25.984Z,6.29
2018-12-21T11:16:56.158Z,6.34
2018-12-21T11:19:26.416Z,6.50
2018-12-21T11:21:56.592Z,6.55
2018-12-21T11:24:35.223Z,6.19
2018-12-21T11:26:58.963Z,6.10
2018-12-21T11:29:29.148Z,5.93
2018-12-21T11:31:59.441Z,6.28
2018-12-21T11:34:29.638Z,5.90
2018-12-21T11:36:59.805Z,6.03
2018-12-21T11:39:30.312Z,6.13
2018-12-21T11:42:00.590Z,6.13
2018-12-21T11:44:30.802Z,6.03
2018-12-21T11:47:01.099Z,5.81
2018-12-21T11:49:31.300Z,6.07
2018-12-21T11:52:01.522Z,6.00
2018-12-21T11:54:31.755Z,5.77
2018-12-21T11:57:02.607Z,6.12
2018-12-21T11:59:32.787Z,5.77
2018-12-21T12:02:03.102Z,6.02
2018-12-21T12:04:33.472Z,6.01
2018-12-21T12:07:03.724Z,6.12
2018-12-21T12:09:33.948Z,6.14
2018-12-21T12:12:05.250Z,6.08
2018-12-21T12:14:35.639Z,5.68
2018-12-21T12:17:05.857Z,5.78
2018-12-21T12:19:36.082Z,6.00
2018-12-21T12:22:06.392Z,5.87
2018-12-21T12:24:36.670Z,5.92
2018-12-21T12:27:06.974Z,6.14
2018-12-21T12:29:37.309Z,5.95
2018-12-21T12:32:07.488Z,5.91
2018-12-21T12:34:37.748Z,6.07
2018-12-21T12:37:08.013Z,6.06
2018-12-21T12:39:38.195Z,5.99
2018-12-21T12:42:08.475Z,6.16
2018-12-21T12:44:40.279Z,6.03
2018-12-21T12:47:10.526Z,5.94
2018-12-21T12:49:41.019Z,5.90
2018-12-21T12:52:11.361Z,5.90
2018-12-21T12:54:41.793Z,6.02
2018-12-21T12:57:12.130Z,6.07
2018-12-21T12:59:42.344Z,6.12
2018-12-21T13:02:12.717Z,6.14
2018-12-21T13:04:42.852Z,6.37
2018-12-21T13:07:13.123Z,6.34
2018-12-21T13:09:43.340Z,6.41
2018-12-21T13:12:13.484Z,6.62
2018-12-21T13:14:43.825Z,6.67
2018-12-21T13:17:14.194Z,7.02
2018-12-21T13:19:44.483Z,7.29
2018-12-21T13:22:14.936Z,7.54
2018-12-21T13:24:45.252Z,7.64
2018-12-21T13:27:15.493Z,7.77
2018-12-21T13:29:45.875Z,7.82
2018-12-21T13:32:16.217Z,7.93
2018-12-21T13:34:46.526Z,8.03
2018-12-21T13:37:16.753Z,8.12
2018-12-21T13:39:47.075Z,8.02
2018-12-21T13:42:17.312Z,8.20
2018-12-21T13:44:47.522Z,8.25
2018-12-21T13:47:17.743Z,8.33
2018-12-21T13:49:48.061Z,8.38
2018-12-21T13:52:18.255Z,8.37
2018-12-21T13:54:48.687Z,8.45
2018-12-21T13:57:18.925Z,8.48
2018-12-21T13:59:49.152Z,8.44
2018-12-21T14:02:19.375Z,8.52
2018-12-21T14:04:49.574Z,8.41
2018-12-21T14:07:19.843Z,8.38
2018-12-21T14:09:50.140Z,8.36
2018-12-21T14:12:20.373Z,8.21
2018-12-21T14:14:50.539Z,8.13
2018-12-21T14:17:20.762Z,8.10
2018-12-21T14:19:50.971Z,8.16
2018-12-21T14:22:21.140Z,8.03
2018-12-21T14:24:51.418Z,8.09
2018-12-21T14:27:21.675Z,8.15
2018-12-21T14:29:51.998Z,8.17
2018-12-21T14:32:22.231Z,8.27
2018-12-21T14:34:52.447Z,8.34
2018-12-21T14:37:22.728Z,8.30
2018-12-21T14:39:52.977Z,8.42
2018-12-21T14:42:23.153Z,8.48
2018-12-21T14:44:53.315Z,8.43
2018-12-21T14:47:24.033Z,8.58
2018-12-21T14:49:54.370Z,8.53
2018-12-21T14:52:24.738Z,8.57
2018-12-21T14:54:54.925Z,8.57
2018-12-21T14:57:25.168Z,8.65
2018-12-21T14:59:55.365Z,8.67
2018-12-21T15:02:25.645Z,8.66
2018-12-21T15:04:55.947Z,8.69
2018-12-21T15:07:26.264Z,8.69
2018-12-21T15:09:56.559Z,8.75
2018-12-21T15:12:26.796Z,8.75
2018-12-21T15:14:57.355Z,8.70
2018-12-21T15:17:27.748Z,8.83
2018-12-21T15:19:57.962Z,8.81
2018-12-21T15:22:28.276Z,8.78
2018-12-21T15:24:58.736Z,8.86
2018-12-21T15:27:28.948Z,8.91
2018-12-21T15:29:59.366Z,9.04
2018-12-21T15:32:29.660Z,9.04
2018-12-21T15:34:59.978Z,9.03
2018-12-21T15:37:30.421Z,8.98
2018-12-21T15:40:01.687Z,8.93
2018-12-21T15:42:32.000Z,8.86
2018-12-21T15:45:02.337Z,8.92
2018-12-21T15:47:32.890Z,8.94
2018-12-21T15:50:03.103Z,9.00
2018-12-21T15:52:33.484Z,9.00
2018-12-21T15:55:03.821Z,9.13
2018-12-21T15:57:34.165Z,9.19
2018-12-21T16:00:05.821Z,9.24
2018-12-21T16:02:36.374Z,9.30
2018-12-21T16:05:06.968Z,9.32
2018-12-21T16:07:37.378Z,9.33
2018-12-21T16:10:10.056Z,9.46
2018-12-21T16:12:40.320Z,9.46
2018-12-21T16:15:10.706Z,9.46
2018-12-21T16:17:41.119Z,9.50
2018-12-21T16:20:14.735Z,9.51
2018-12-21T16:22:45.293Z,9.54
2018-12-21T16:25:15.538Z,9.54
2018-12-21T16:27:45.952Z,9.63
2018-12-21T16:30:16.291Z,9.62
2018-12-21T16:32:46.626Z,9.63
2018-12-21T16:35:16.977Z,9.73
2018-12-21T16:37:47.326Z,9.76
2018-12-21T16:40:17.776Z,9.82
2018-12-21T16:42:48.073Z,9.81
2018-12-21T16:45:18.474Z,9.86
2018-12-21T16:47:48.658Z,9.80
2018-12-21T16:50:18.945Z,9.78
2018-12-21T16:52:49.286Z,9.91
2018-12-21T16:55:19.689Z,9.87
2018-12-21T16:57:49.902Z,9.94
2018-12-21T17:00:20.201Z,9.92
2018-12-21T17:02:50.429Z,9.99
2018-12-21T17:05:20.589Z,9.88
2018-12-21T17:07:50.997Z,9.96
2018-12-21T17:10:23.875Z,9.96
2018-12-21T17:12:54.061Z,10.02
2018-12-21T17:15:24.218Z,10.02
2018-12-21T17:17:54.378Z,10.03
2018-12-21T17:20:24.550Z,10.00
2018-12-21T17:22:54.716Z,10.03
2018-12-21T17:25:24.940Z,10.02
2018-12-21T17:27:55.234Z,10.10
2018-12-21T17:30:25.380Z,10.01
2018-12-21T17:32:55.580Z,10.05
2018-12-21T17:35:25.737Z,10.03
2018-12-21T17:37:55.999Z,10.01
2018-12-21T17:40:26.314Z,10.00
2018-12-21T17:42:56.724Z,9.97
2018-12-21T17:45:27.065Z,9.97
2018-12-21T17:47:57.269Z,10.07
2018-12-21T17:50:27.610Z,10.05
2018-12-21T17:52:57.954Z,9.99
2018-12-21T17:55:28.133Z,10.03
2018-12-21T17:57:58.495Z,10.06
2018-12-21T18:00:28.712Z,10.11
2018-12-21T18:02:59.602Z,10.05
2018-12-21T18:05:29.762Z,10.08
2018-12-21T18:07:59.990Z,10.16
2018-12-21T18:10:30.399Z,10.15
2018-12-21T18:13:00.651Z,10.09
2018-12-21T18:15:30.800Z,10.14
2018-12-21T18:18:00.967Z,10.18
2018-12-21T18:20:31.190Z,10.20
2018-12-21T18:23:03.224Z,10.15
2018-12-21T18:25:33.399Z,10.20
2018-12-21T18:28:10.826Z,10.09
2018-12-21T18:30:44.819Z,10.24
2018-12-21T18:33:17.054Z,10.31
2018-12-21T18:35:47.347Z,10.31
2018-12-21T18:38:21.429Z,10.29
2018-12-21T18:40:51.606Z,10.31
2018-12-21T18:43:21.790Z,10.38
2018-12-21T18:45:52.094Z,10.44
2018-12-21T18:48:22.509Z,10.39
2018-12-21T18:50:52.679Z,10.36
2018-12-21T18:53:22.931Z,10.48
2018-12-21T18:55:54.105Z,10.45
2018-12-21T18:58:24.381Z,10.35
2018-12-21T19:00:54.601Z,10.48
2018-12-21T19:03:24.947Z,10.44
2018-12-21T19:05:55.147Z,10.46
2018-12-21T19:08:25.356Z,10.47
2018-12-21T19:10:55.545Z,10.47
2018-12-21T19:13:25.761Z,10.45
2018-12-21T19:15:55.974Z,10.45
2018-12-21T19:18:26.333Z,10.41
2018-12-21T19:20:56.533Z,10.33
2018-12-21T19:23:26.871Z,10.38
2018-12-21T19:25:57.071Z,10.36
2018-12-21T19:28:27.358Z,10.39
2018-12-21T19:30:57.537Z,10.38
2018-12-21T19:33:27.756Z,10.29
2018-12-21T19:35:57.965Z,10.33
2018-12-21T19:38:28.212Z,10.40
2018-12-21T19:40:58.387Z,10.37
2018-12-21T19:43:28.675Z,10.36
2018-12-21T19:46:01.064Z,10.35
2018-12-21T19:48:31.264Z,10.32
2018-12-21T19:51:01.462Z,10.35
2018-12-21T19:53:31.742Z,10.35
2018-12-21T19:56:25.443Z,10.32
2018-12-21T19:58:55.707Z,10.32
2018-12-21T20:01:26.887Z,10.32
2018-12-21T20:03:57.175Z,10.37
2018-12-21T20:06:27.438Z,10.41
2018-12-21T20:08:57.813Z,10.41
2018-12-21T20:11:28.094Z,10.45
2018-12-21T20:13:58.415Z,10.41
2018-12-21T20:16:28.782Z,10.40
2018-12-21T20:18:59.042Z,10.44
2018-12-21T20:21:29.355Z,10.47
2018-12-21T20:23:59.568Z,10.53
2018-12-21T20:26:29.771Z,10.48
2018-12-21T20:28:59.974Z,10.59
2018-12-21T20:31:30.142Z,10.47
2018-12-21T20:34:00.432Z,10.56
2018-12-21T20:36:30.678Z,10.56
2018-12-21T20:39:00.949Z,10.56
2018-12-21T20:41:32.206Z,10.54
2018-12-21T20:44:02.402Z,10.57
2018-12-21T20:46:32.592Z,10.63
2018-12-21T20:49:02.810Z,10.61
2018-12-21T20:51:32.989Z,10.64
2018-12-21T20:54:03.232Z,10.66
2018-12-21T20:56:33.456Z,10.71
2018-12-21T20:59:11.166Z,10.67
2018-12-21T21:01:41.423Z,10.68
2018-12-21T21:04:11.713Z,10.65
2018-12-21T21:06:42.077Z,10.70
2018-12-21T21:09:13.897Z,10.66
2018-12-21T21:11:44.107Z,10.75
2018-12-21T21:14:16.586Z,10.72
2018-12-21T21:16:46.774Z,10.73
2018-12-21T21:19:17.005Z,10.74
2018-12-21T21:21:47.319Z,10.80
2018-12-21T21:24:17.667Z,10.80
2018-12-21T21:26:47.968Z,10.80
2018-12-21T21:29:18.316Z,10.83
2018-12-21T21:31:49.512Z,10.75
2018-12-21T21:34:19.813Z,10.76
2018-12-21T21:36:50.065Z,10.80
2018-12-21T21:39:20.310Z,10.82
2018-12-21T21:41:50.733Z,10.85
2018-12-21T21:44:20.934Z,10.86
2018-12-21T21:46:51.346Z,10.75
2018-12-21T21:49:21.692Z,10.79
2018-12-21T21:51:51.863Z,10.79
2018-12-21T21:54:22.074Z,10.81
2018-12-21T21:56:52.337Z,10.93
2018-12-21T21:59:22.844Z,10.80
2018-12-21T22:01:53.086Z,10.79
2018-12-21T22:04:23.358Z,10.91
2018-12-21T22:06:53.582Z,10.84
2018-12-21T22:09:23.955Z,10.89
2018-12-21T22:11:54.264Z,10.91
2018-12-21T22:14:24.521Z,10.96
2018-12-21T22:16:54.750Z,10.92
2018-12-21T22:19:25.089Z,10.94
2018-12-21T22:21:55.258Z,10.92
2018-12-21T22:24:25.510Z,10.93
2018-12-21T22:26:55.739Z,10.96
2018-12-21T22:29:25.998Z,10.90
2018-12-21T22:31:56.675Z,10.96
2018-12-21T22:34:27.042Z,10.97
2018-12-21T22:36:57.311Z,10.95
2018-12-21T22:39:27.654Z,10.88
2018-12-21T22:41:57.871Z,10.92
2018-12-21T22:44:28.060Z,10.96
2018-12-21T22:46:58.293Z,10.90
2018-12-21T22:49:28.681Z,10.95
2018-12-21T22:51:59.977Z,10.94
2018-12-21T22:54:30.262Z,10.93
2018-12-21T22:57:00.607Z,10.92
2018-12-21T22:59:30.872Z,10.94
2018-12-21T23:02:01.164Z,10.94
2018-12-21T23:04:31.587Z,10.99
2018-12-21T23:07:01.914Z,10.95
2018-12-21T23:09:33.286Z,10.94
2018-12-21T23:12:03.590Z,10.92
2018-12-21T23:14:33.934Z,11.03
2018-12-21T23:17:04.238Z,10.94
2018-12-21T23:19:34.488Z,10.93
2018-12-21T23:22:04.873Z,10.93
2018-12-21T23:24:35.139Z,10.84
2018-12-21T23:27:05.327Z,10.76
2018-12-21T23:29:35.596Z,10.66
2018-12-21T23:32:05.919Z,10.68
2018-12-21T23:34:36.238Z,10.68
2018-12-21T23:37:06.581Z,10.80
2018-12-21T23:39:36.857Z,10.79
2018-12-21T23:42:07.051Z,10.84
2018-12-21T23:44:37.277Z,10.87
2018-12-21T23:47:07.491Z,10.90
2018-12-21T23:49:37.814Z,10.94
2018-12-21T23:52:08.170Z,10.85
2018-12-21T23:54:38.487Z,10.75
2018-12-21T23:57:08.653Z,10.72
2018-12-21T23:59:38.917Z,10.68
